Time;durP1;ratioP1;P1;durP2;ratioP2;P2;SDS_P1;SDS_P2;PMS_P1;PMS_P2;Temp;Humidity;BMP_temperature;BMP_pressure;BME280_temperature;BME280_humidity;BME280_pressure;Samples;Min_cycle;Max_cycle;Signal;HPM_P1;HPM_P2
2023/08/29 00:01:55;;;;;;;1.33;1.20;;;;;;;14.30;99.49;101360.34;5097507;28;20055;-74
2023/08/29 00:04:20;;;;;;;0.98;0.98;;;;;;;14.29;99.59;101355.13;5099102;28;20095;-74
2023/08/29 00:06:45;;;;;;;1.67;1.25;;;;;;;14.26;99.35;101360.53;5096470;28;20331;-74
2023/08/29 00:09:11;;;;;;;1.10;1.00;;;;;;;14.25;99.49;101364.13;5095261;28;20394;-74
2023/08/29 00:11:36;;;;;;;1.30;1.05;;;;;;;14.23;99.61;101355.44;5075752;28;20275;-74
2023/08/29 00:14:01;;;;;;;0.98;0.90;;;;;;;14.21;99.69;101353.72;5098829;28;20226;-73
2023/08/29 00:16:28;;;;;;;1.73;1.00;;;;;;;14.19;99.76;101352.09;5096299;28;20056;-74
2023/08/29 00:18:53;;;;;;;4.22;1.30;;;;;;;14.18;99.86;101351.22;5098678;28;20036;-74
2023/08/29 00:21:19;;;;;;;1.30;1.20;;;;;;;14.17;100.00;101344.28;5097997;28;20051;-74
2023/08/29 00:23:47;;;;;;;1.30;1.20;;;;;;;14.17;99.88;101343.41;5079902;28;20347;-74
2023/08/29 00:26:12;;;;;;;1.17;1.17;;;;;;;14.16;99.80;101337.28;5091586;28;20349;-74
2023/08/29 00:28:38;;;;;;;2.97;1.95;;;;;;;14.15;99.85;101334.72;5080071;28;20052;-74
2023/08/29 00:31:03;;;;;;;1.45;1.35;;;;;;;14.12;99.70;101338.38;5098340;28;20055;-74
2023/08/29 00:33:28;;;;;;;1.40;1.30;;;;;;;14.10;99.87;101334.06;5080172;28;20027;-74
2023/08/29 00:35:53;;;;;;;1.48;1.27;;;;;;;14.09;99.95;101337.66;5096006;28;20248;-74
2023/08/29 00:38:19;;;;;;;1.65;1.55;;;;;;;14.07;99.99;101331.59;5097889;28;20028;-74
2023/08/29 00:40:44;;;;;;;1.30;1.30;;;;;;;14.06;100.00;101335.16;5095290;28;20081;-74
2023/08/29 00:43:09;;;;;;;1.58;1.48;;;;;;;14.05;99.90;101333.47;5095810;28;20093;-74
2023/08/29 00:45:39;;;;;;;1.77;1.40;;;;;;;14.03;100.00;101325.63;5097866;28;20050;-74
2023/08/29 00:48:06;;;;;;;1.48;1.38;;;;;;;14.03;100.00;101330.91;5096356;28;20028;-74
2023/08/29 00:50:33;;;;;;;1.75;1.33;;;;;;;14.01;100.00;101330.97;5098512;28;20164;-74
2023/08/29 00:53:03;;;;;;;1.63;1.27;;;;;;;13.99;99.95;101326.72;5096436;28;20350;-74
2023/08/29 00:55:29;;;;;;;2.53;1.30;;;;;;;13.99;99.78;101324.94;5097630;28;20469;-74
2023/08/29 00:57:59;;;;;;;1.50;1.40;;;;;;;13.98;100.00;101323.19;5097544;28;20047;-74
2023/08/29 01:03:47;;;;;;;2.05;1.60;;;;;;;13.94;100.00;101323.44;4889454;28;20074;-75
2023/08/29 01:06:13;;;;;;;1.58;1.48;;;;;;;13.92;100.00;101326.13;5080439;28;20032;-76
2023/08/29 01:08:39;;;;;;;1.33;1.27;;;;;;;13.91;100.00;101323.56;5078060;28;20040;-76
2023/08/29 01:11:21;;;;;;;1.70;1.60;;;;;;;13.89;100.00;101323.63;5077931;28;20036;-76
2023/08/29 01:14:16;;;;;;;4.13;1.60;;;;;;;13.87;100.00;101327.28;5078271;28;20388;-76
2023/08/29 01:16:49;;;;;;;1.80;1.70;;;;;;;13.85;100.00;101318.59;5076662;28;20332;-76
2023/08/29 01:19:15;;;;;;;1.65;1.50;;;;;;;13.83;100.00;101322.16;5097848;28;20047;-76
2023/08/29 01:21:50;;;;;;;2.42;1.60;;;;;;;13.80;100.00;101319.66;5097215;28;20339;-75
2023/08/29 01:24:25;;;;;;;2.47;1.48;;;;;;;13.78;100.00;101315.41;5097841;28;20088;-75
2023/08/29 01:26:51;;;;;;;2.45;1.73;;;;;;;13.76;100.00;101323.34;5094419;28;20048;-75
2023/08/29 01:29:17;;;;;;;1.70;1.60;;;;;;;13.74;100.00;101306.78;5077167;28;20040;-75
2023/08/29 01:31:43;;;;;;;1.33;1.23;;;;;;;13.71;100.00;101303.44;5077561;28;20040;-75
2023/08/29 01:34:08;;;;;;;1.20;1.20;;;;;;;13.70;100.00;101304.34;5086886;28;20028;-75
2023/08/29 01:36:41;;;;;;;1.30;1.30;;;;;;;13.69;100.00;101300.88;5084060;28;20035;-75
2023/08/29 01:39:07;;;;;;;2.60;1.38;;;;;;;13.68;100.00;101303.56;5077076;28;20035;-75
2023/08/29 01:41:32;;;;;;;1.60;1.50;;;;;;;13.67;100.00;101312.41;5077125;28;20040;-75
2023/08/29 01:43:59;;;;;;;1.60;1.40;;;;;;;13.64;100.00;101308.13;5077351;28;20060;-75
2023/08/29 01:46:24;;;;;;;1.98;1.50;;;;;;;13.62;100.00;101310.84;5076482;28;20332;-75
2023/08/29 01:48:50;;;;;;;1.50;1.40;;;;;;;13.61;100.00;101319.66;5092495;28;20071;-75
2023/08/29 01:51:15;;;;;;;1.50;1.40;;;;;;;13.60;100.00;101315.31;5097462;28;20192;-75
2023/08/29 01:53:42;;;;;;;1.40;1.30;;;;;;;13.58;100.00;101309.25;5096748;28;20040;-75
2023/08/29 01:56:08;;;;;;;1.40;1.30;;;;;;;13.58;100.00;101311.06;5096984;28;20038;-75
2023/08/29 01:58:35;;;;;;;1.42;1.33;;;;;;;13.55;100.00;101319.94;5096618;28;20119;-75
2023/08/29 02:01:02;;;;;;;2.92;1.27;;;;;;;13.54;100.00;101318.22;5097139;28;20038;-75
2023/08/29 02:03:27;;;;;;;2.25;1.70;;;;;;;13.53;100.00;101326.19;5096568;28;20374;-75
2023/08/29 02:05:53;;;;;;;1.77;1.40;;;;;;;13.51;100.00;101325.41;5081508;28;20036;-75
2023/08/29 02:08:18;;;;;;;1.58;1.48;;;;;;;13.50;100.00;101323.69;5089777;28;20337;-74
2023/08/29 02:10:44;;;;;;;1.40;1.40;;;;;;;13.47;100.00;101322.06;5100807;28;20470;-74
2023/08/29 02:13:09;;;;;;;1.77;1.67;;;;;;;13.47;100.00;101308.91;5099897;28;20024;-74
2023/08/29 02:15:35;;;;;;;1.80;1.70;;;;;;;13.44;100.00;101311.66;5100348;28;20042;-74
2023/08/29 02:18:00;;;;;;;1.85;1.70;;;;;;;13.43;100.00;101315.22;5091875;28;20067;-74
2023/08/29 02:20:25;;;;;;;2.08;1.70;;;;;;;13.40;100.00;101310.94;5079413;28;20068;-74
2023/08/29 02:22:51;;;;;;;1.70;1.60;;;;;;;13.42;100.00;101305.63;5080223;28;20035;-74
2023/08/29 02:25:16;;;;;;;1.75;1.65;;;;;;;13.42;100.00;101313.50;5079350;28;20105;-74
2023/08/29 02:27:42;;;;;;;1.70;1.52;;;;;;;13.41;100.00;101315.31;5065128;28;20024;-74
2023/08/29 02:30:08;;;;;;;1.70;1.60;;;;;;;13.40;100.00;101312.72;5081463;28;20027;-74
2023/08/29 02:32:34;;;;;;;3.13;1.95;;;;;;;13.40;100.00;101310.09;5093454;28;20390;-74
2023/08/29 02:35:00;;;;;;;2.10;2.00;;;;;;;13.40;100.00;101315.38;5091197;28;20054;-74
2023/08/29 02:37:25;;;;;;;1.90;1.77;;;;;;;13.39;100.00;101314.53;5061165;28;20025;-73
2023/08/29 02:39:51;;;;;;;2.70;2.30;;;;;;;13.39;100.00;101308.41;5079798;28;20245;-74
2023/08/29 02:42:16;;;;;;;2.72;2.53;;;;;;;13.39;100.00;101318.94;5079476;28;20464;-74
2023/08/29 02:44:41;;;;;;;2.90;2.60;;;;;;;13.39;100.00;101321.56;5061784;28;20411;-74
2023/08/29 02:47:07;;;;;;;2.30;2.20;;;;;;;13.36;100.00;101325.16;5079762;28;20029;-74
2023/08/29 02:49:33;;;;;;;2.30;2.15;;;;;;;13.36;100.00;101324.31;5095767;28;20044;-74
2023/08/29 02:51:59;;;;;;;2.97;2.70;;;;;;;13.35;100.00;101323.47;5096038;28;20032;-74
2023/08/29 02:54:24;;;;;;;2.25;2.00;;;;;;;13.36;100.00;101319.06;5079167;28;20040;-74
2023/08/29 02:56:51;;;;;;;2.38;2.28;;;;;;;13.36;100.00;101324.31;5079141;28;20044;-74
2023/08/29 02:59:16;;;;;;;3.08;2.03;;;;;;;13.36;100.00;101317.28;5079123;28;20122;-74
2023/08/29 03:01:42;;;;;;;2.35;2.25;;;;;;;13.36;100.00;101322.53;5079697;28;20306;-73
2023/08/29 03:04:07;;;;;;;2.17;2.00;;;;;;;13.36;100.00;101319.06;5089817;28;20039;-73
2023/08/29 03:06:32;;;;;;;3.55;2.17;;;;;;;13.36;100.00;101325.16;5099236;28;20050;-73
2023/08/29 03:08:58;;;;;;;2.25;2.15;;;;;;;13.37;100.00;101323.38;5092023;28;20067;-73
2023/08/29 03:11:23;;;;;;;2.30;1.95;;;;;;;13.37;100.00;101328.66;5078908;28;20036;-73
2023/08/29 03:13:48;;;;;;;2.40;2.20;;;;;;;13.37;100.00;101326.00;5079178;28;20028;-74
2023/08/29 03:16:15;;;;;;;2.63;2.42;;;;;;;13.36;100.00;101333.06;5079182;28;20024;-74
2023/08/29 03:18:41;;;;;;;3.15;2.80;;;;;;;13.36;100.00;101332.22;5078736;28;20690;-74
2023/08/29 03:21:07;;;;;;;3.00;2.80;;;;;;;13.35;100.00;101333.13;5079099;28;20063;-74
2023/08/29 03:23:35;;;;;;;3.22;2.88;;;;;;;13.36;100.00;101334.84;5078886;28;20032;-74
2023/08/29 03:26:02;;;;;;;;;;;;;;;13.35;100.00;101335.75;5079575;28;20052;-74
2023/08/29 03:28:27;;;;;;;2.75;2.55;;;;;;;13.35;100.00;101330.50;5079161;28;20218;-74
2023/08/29 03:30:53;;;;;;;2.70;2.50;;;;;;;13.34;100.00;101332.28;5098310;28;20069;-74
2023/08/29 03:33:18;;;;;;;2.47;2.28;;;;;;;13.35;100.00;101328.75;5098881;28;20035;-73
2023/08/29 03:35:43;;;;;;;2.40;2.30;;;;;;;13.34;100.00;101329.66;5079736;28;20459;-73
2023/08/29 03:38:09;;;;;;;2.60;2.40;;;;;;;13.35;100.00;101327.88;5084871;28;20231;-73
2023/08/29 03:40:35;;;;;;;2.53;2.40;;;;;;;13.35;100.00;101326.13;5098765;28;20421;-73
2023/08/29 03:43:00;;;;;;;2.65;2.20;;;;;;;13.35;100.00;101326.13;5094860;28;20024;-73
2023/08/29 03:45:26;;;;;;;2.97;2.40;;;;;;;13.35;100.00;101334.00;5059747;28;20039;-73
2023/08/29 03:47:51;;;;;;;5.22;2.20;;;;;;;13.36;100.00;101330.44;5081022;28;20036;-73
2023/08/29 03:50:16;;;;;;;3.95;2.60;;;;;;;13.35;100.00;101331.38;5098041;28;20258;-73
2023/08/29 03:52:42;;;;;;;2.42;2.33;;;;;;;13.35;100.00;101323.47;5098293;28;20217;-74
2023/08/29 03:55:07;;;;;;;3.05;2.85;;;;;;;13.36;100.00;101326.94;5097778;28;20032;-74
2023/08/29 03:57:33;;;;;;;3.78;2.88;;;;;;;13.35;100.00;101326.13;5097719;28;20239;-74
2023/08/29 03:59:58;;;;;;;3.50;2.60;;;;;;;13.37;100.00;101332.16;5098310;28;20028;-73
2023/08/29 04:02:24;;;;;;;2.60;2.40;;;;;;;13.38;100.00;101330.38;5097645;28;20087;-73
2023/08/29 04:04:52;;;;;;;3.40;2.35;;;;;;;13.37;100.00;101332.16;5094791;28;20028;-73
2023/08/29 04:07:17;;;;;;;3.85;3.00;;;;;;;13.37;100.00;101329.53;5098263;28;20032;-73
2023/08/29 04:09:43;;;;;;;2.92;2.72;;;;;;;13.38;100.00;101325.09;5078683;28;20078;-74
2023/08/29 04:12:10;;;;;;;4.90;2.90;;;;;;;13.38;100.00;101325.09;5077777;28;20029;-74
2023/08/29 04:14:35;;;;;;;3.40;2.78;;;;;;;13.39;100.00;101319.78;5077884;28;20036;-74
2023/08/29 04:17:01;;;;;;;2.58;2.47;;;;;;;13.39;100.00;101306.63;5077689;28;20066;-74
2023/08/29 04:19:26;;;;;;;3.70;3.13;;;;;;;13.39;100.00;101303.16;5077227;28;20040;-74
2023/08/29 04:21:52;;;;;;;3.20;2.95;;;;;;;13.40;100.00;101302.22;5077502;28;20037;-74
2023/08/29 04:24:17;;;;;;;3.45;3.15;;;;;;;13.39;100.00;101303.16;5076929;28;20029;-74
2023/08/29 04:26:42;;;;;;;3.67;2.80;;;;;;;13.38;100.00;101297.00;5059249;28;20025;-74
2023/08/29 04:29:08;;;;;;;4.65;2.83;;;;;;;13.37;100.00;101297.06;5077348;28;20028;-74
2023/08/29 04:31:33;;;;;;;3.63;3.15;;;;;;;13.38;100.00;101298.78;5077578;28;20036;-74
2023/08/29 04:33:59;;;;;;;3.22;2.92;;;;;;;13.37;100.00;101294.44;5084190;28;20327;-74
2023/08/29 04:36:25;;;;;;;3.35;3.05;;;;;;;13.36;100.00;101283.06;5097534;28;20091;-74
2023/08/29 04:38:50;;;;;;;3.10;2.80;;;;;;;13.38;100.00;101288.28;5084346;28;20043;-74
2023/08/29 04:41:16;;;;;;;5.45;3.13;;;;;;;13.36;100.00;101296.22;5079351;28;20043;-74
2023/08/29 04:43:41;;;;;;;3.20;2.90;;;;;;;13.36;100.00;101283.06;5094304;28;20063;-74
2023/08/29 04:46:07;;;;;;;5.82;2.83;;;;;;;13.36;100.00;101283.06;5102044;28;20063;-74
2023/08/29 04:48:33;;;;;;;4.35;3.10;;;;;;;13.35;100.00;101281.38;5101905;28;20054;-74
2023/08/29 04:50:59;;;;;;;3.20;3.00;;;;;;;13.37;100.00;101283.91;5101201;28;20040;-74
2023/08/29 04:53:24;;;;;;;3.33;2.97;;;;;;;13.37;100.00;101282.16;5091934;28;20236;-74
2023/08/29 04:55:58;;;;;;;4.45;2.80;;;;;;;13.36;100.00;101277.81;5099857;28;20347;-74
2023/08/29 04:58:23;;;;;;;3.00;2.80;;;;;;;13.36;100.00;101272.56;5101352;28;20040;-74
2023/08/29 05:00:50;;;;;;;2.83;2.53;;;;;;;13.37;100.00;101273.41;5083926;28;20415;-74
2023/08/29 05:03:15;;;;;;;3.35;2.75;;;;;;;13.38;100.00;101275.13;5087905;28;20214;-74
2023/08/29 05:05:45;;;;;;;2.70;2.50;;;;;;;13.38;100.00;101285.66;5079250;28;20091;-74
2023/08/29 05:08:11;;;;;;;4.78;2.95;;;;;;;13.37;100.00;101278.66;5101511;28;20044;-74
2023/08/29 05:10:36;;;;;;;3.35;2.22;;;;;;;13.39;100.00;101279.47;5085982;28;20032;-74
2023/08/29 05:13:01;;;;;;;2.80;2.47;;;;;;;13.39;100.00;101276.84;5068852;28;20040;-73
2023/08/29 05:15:27;;;;;;;2.67;2.28;;;;;;;13.40;100.00;101273.28;5080824;28;20035;-73
2023/08/29 05:17:52;;;;;;;2.40;2.20;;;;;;;13.40;100.00;101270.63;5099302;28;20291;-73
2023/08/29 05:20:17;;;;;;;2.85;2.10;;;;;;;13.40;100.00;101268.00;5099169;28;20044;-74
2023/08/29 05:22:43;;;;;;;2.58;2.35;;;;;;;13.42;100.00;101266.16;5100959;28;20082;-74
2023/08/29 05:25:09;;;;;;;2.40;2.30;;;;;;;13.42;100.00;101269.66;5098397;28;20074;-74
2023/08/29 05:27:34;;;;;;;2.47;2.33;;;;;;;13.43;100.00;101262.63;5100595;28;20031;-74
2023/08/29 05:30:00;;;;;;;3.05;2.38;;;;;;;13.45;100.00;101263.41;5094921;28;20040;-74
2023/08/29 05:32:25;;;;;;;4.00;2.30;;;;;;;13.45;100.00;101263.41;5090396;28;20024;-74
2023/08/29 05:34:50;;;;;;;4.43;2.63;;;;;;;13.47;100.00;101264.19;5074869;28;20024;-74
2023/08/29 05:37:16;;;;;;;2.50;2.40;;;;;;;13.47;100.00;101268.59;5098763;28;20052;-74
2023/08/29 05:39:41;;;;;;;3.92;2.80;;;;;;;13.47;100.00;101272.06;5097052;28;20032;-74
2023/08/29 05:42:06;;;;;;;3.75;2.75;;;;;;;13.48;100.00;101272.91;5099075;28;20166;-74
2023/08/29 05:44:32;;;;;;;2.72;2.53;;;;;;;13.48;100.00;101268.53;5096605;28;20036;-74
2023/08/29 05:46:58;;;;;;;3.03;2.78;;;;;;;13.49;100.00;101270.22;5091339;28;20032;-74
2023/08/29 05:49:23;;;;;;;2.97;2.58;;;;;;;13.49;100.00;101270.22;5087420;28;20032;-74
2023/08/29 05:51:49;;;;;;;3.25;2.80;;;;;;;13.50;100.00;101266.69;5088696;28;20105;-74
2023/08/29 05:54:14;;;;;;;3.88;3.13;;;;;;;13.50;100.00;101264.03;5087749;28;20078;-73
2023/08/29 05:56:39;;;;;;;3.40;2.75;;;;;;;13.51;100.00;101260.47;5089963;28;20378;-73
2023/08/29 05:59:05;;;;;;;4.68;3.00;;;;;;;13.51;100.00;101259.63;5092477;28;20300;-73
2023/08/29 06:01:30;;;;;;;3.03;2.30;;;;;;;13.52;100.00;101258.72;5091445;28;20046;-74
2023/08/29 06:03:56;;;;;;;5.03;3.15;;;;;;;13.53;100.00;101266.50;5094282;28;20062;-74
2023/08/29 06:06:21;;;;;;;8.38;3.08;;;;;;;13.53;100.00;101263.88;5086191;28;20046;-74
2023/08/29 06:08:47;;;;;;;7.60;2.97;;;;;;;13.55;100.00;101269.06;5090692;28;20036;-74
2023/08/29 06:11:12;;;;;;;3.30;2.58;;;;;;;13.55;100.00;101267.31;5089439;28;20035;-74
2023/08/29 06:13:38;;;;;;;5.68;3.00;;;;;;;13.56;100.00;101270.81;5088698;28;20047;-74
2023/08/29 06:16:03;;;;;;;5.95;3.05;;;;;;;13.57;100.00;101269.84;5086707;28;20036;-74
2023/08/29 06:18:29;;;;;;;8.95;2.72;;;;;;;13.58;100.00;101268.94;5087465;28;20239;-74
2023/08/29 06:20:54;;;;;;;5.00;2.47;;;;;;;13.57;100.00;101265.47;5088340;28;20035;-74
2023/08/29 06:23:20;;;;;;;3.97;2.67;;;;;;;13.59;100.00;101268.03;5085986;28;20159;-74
2023/08/29 06:25:45;;;;;;;6.78;2.70;;;;;;;13.59;100.00;101268.03;5088766;28;20351;-74
2023/08/29 06:28:11;;;;;;;7.38;2.72;;;;;;;13.60;100.00;101264.47;5086966;28;20039;-74
2023/08/29 06:30:37;;;;;;;3.15;2.85;;;;;;;13.60;100.00;101265.31;5088071;28;20381;-74
2023/08/29 06:33:06;;;;;;;8.85;2.63;;;;;;;13.60;100.00;101262.66;5088373;28;20051;-74
2023/08/29 06:35:34;;;;;;;6.10;3.03;;;;;;;13.61;100.00;101269.66;5089890;28;20104;-74
2023/08/29 06:38:00;;;;;;;5.53;2.70;;;;;;;13.62;100.00;101258.22;5085520;28;20042;-74
2023/08/29 06:40:25;;;;;;;5.43;2.88;;;;;;;13.63;100.00;101266.97;5086053;28;20379;-74
2023/08/29 06:42:50;;;;;;;6.13;2.67;;;;;;;13.63;100.00;101259.06;5067409;28;20020;-74
2023/08/29 06:45:16;;;;;;;7.10;2.88;;;;;;;13.65;100.00;101259.00;5086841;28;20046;-74
2023/08/29 06:47:41;;;;;;;9.50;2.85;;;;;;;13.65;100.00;101246.69;5085926;28;20036;-74
2023/08/29 06:50:08;;;;;;;2.90;2.50;;;;;;;13.67;100.00;101252.72;5085450;28;20039;-74
2023/08/29 06:52:33;;;;;;;4.43;3.30;;;;;;;13.67;100.00;101250.09;5093526;28;20024;-73
2023/08/29 06:54:59;;;;;;;4.93;2.97;;;;;;;13.67;100.00;101251.88;5094385;28;20054;-73
2023/08/29 06:57:24;;;;;;;8.40;3.30;;;;;;;13.68;100.00;101254.44;5077280;28;20032;-73
2023/08/29 06:59:50;;;;;;;3.60;3.25;;;;;;;13.70;100.00;101259.59;5077752;28;20096;-73
2023/08/29 07:02:15;;;;;;;4.22;3.38;;;;;;;13.70;100.00;101271.00;5094559;28;20079;-73
2023/08/29 07:04:40;;;;;;;6.22;3.08;;;;;;;13.70;100.00;101267.50;5096461;28;20047;-74
2023/08/29 07:07:06;;;;;;;5.25;3.42;;;;;;;13.72;100.00;101263.91;5079221;28;20325;-74
2023/08/29 07:09:31;;;;;;;3.88;2.75;;;;;;;13.72;100.00;101263.91;5090394;28;20051;-74
2023/08/29 07:11:57;;;;;;;4.00;2.72;;;;;;;13.74;100.00;101255.94;5095668;28;20036;-74
2023/08/29 07:14:22;;;;;;;4.22;3.00;;;;;;;13.76;100.00;101259.34;5078745;28;20020;-74
2023/08/29 07:16:48;;;;;;;4.88;3.00;;;;;;;13.77;100.00;101254.00;5084814;28;20089;-74
2023/08/29 07:19:13;;;;;;;4.45;2.97;;;;;;;13.81;100.00;101257.34;5083397;28;20040;-74
2023/08/29 07:21:40;;;;;;;6.15;3.28;;;;;;;13.83;100.00;101256.34;5081153;28;20050;-74
2023/08/29 07:24:05;;;;;;;3.78;3.42;;;;;;;13.86;100.00;101258.00;5091313;28;20032;-74
2023/08/29 07:26:31;;;;;;;6.03;3.30;;;;;;;13.89;100.00;101260.44;5095110;28;20051;-73
2023/08/29 07:28:56;;;;;;;4.13;3.72;;;;;;;13.92;100.00;101267.38;5089125;28;20039;-73
2023/08/29 07:31:22;;;;;;;3.95;3.65;;;;;;;13.95;100.00;101260.19;5095196;28;20367;-73
2023/08/29 07:33:47;;;;;;;5.35;4.38;;;;;;;13.97;100.00;101260.94;5096024;28;20219;-73
2023/08/29 07:36:13;;;;;;;3.95;3.42;;;;;;;14.01;100.00;101256.38;5094758;28;20327;-73
2023/08/29 07:38:38;;;;;;;4.50;3.58;;;;;;;14.04;100.00;101260.66;5094418;28;20040;-73
2023/08/29 07:41:04;;;;;;;4.30;3.90;;;;;;;14.06;100.00;101250.88;5094792;28;20028;-74
2023/08/29 07:43:29;;;;;;;5.78;4.03;;;;;;;14.09;100.00;101253.38;5095534;28;20032;-73
2023/08/29 07:45:55;;;;;;;4.50;4.10;;;;;;;14.14;100.00;101254.00;5087757;28;20103;-73
2023/08/29 07:48:20;;;;;;;6.32;5.00;;;;;;;14.17;100.00;101252.09;5081358;28;20074;-73
2023/08/29 07:50:45;;;;;;;5.03;4.43;;;;;;;14.20;100.00;101254.53;5080630;28;20371;-73
2023/08/29 07:53:11;;;;;;;5.10;4.72;;;;;;;14.24;100.00;101249.13;5087799;28;20028;-73
2023/08/29 07:55:37;;;;;;;5.93;4.20;;;;;;;14.27;100.00;101255.09;5082109;28;20243;-73
2023/08/29 07:58:03;;;;;;;5.50;5.07;;;;;;;14.29;100.00;101253.25;5084117;28;20247;-73
2023/08/29 08:00:29;;;;;;;5.35;4.35;;;;;;;14.33;100.00;101253.94;5081540;28;20032;-73
2023/08/29 08:02:54;;;;;;;4.95;4.55;;;;;;;14.35;100.00;101260.84;5082706;28;20062;-73
2023/08/29 08:05:20;;;;;;;4.30;3.90;;;;;;;14.37;100.00;101252.84;5084078;28;20039;-73
2023/08/29 08:07:46;;;;;;;4.30;4.00;;;;;;;14.38;100.00;101255.41;5086396;28;20354;-73
2023/08/29 08:10:14;;;;;;;4.38;4.05;;;;;;;14.40;100.00;101256.19;5084657;28;20058;-73
2023/08/29 08:12:40;;;;;;;5.05;4.55;;;;;;;14.42;100.00;101250.84;5081940;28;20050;-73
2023/08/29 08:15:07;;;;;;;5.30;4.70;;;;;;;14.45;100.00;101252.50;5085599;28;20027;-73
2023/08/29 08:17:33;;;;;;;5.32;4.93;;;;;;;14.47;100.00;101254.09;5082258;28;20037;-73
2023/08/29 08:19:59;;;;;;;6.00;4.22;;;;;;;14.50;100.00;101256.59;5083726;28;20064;-73
2023/08/29 08:22:24;;;;;;;5.78;4.80;;;;;;;14.52;100.00;101248.63;5083134;28;20031;-73
2023/08/29 08:24:50;;;;;;;4.40;4.10;;;;;;;14.54;100.00;101247.59;5085360;28;20023;-73
2023/08/29 08:27:17;;;;;;;5.03;3.72;;;;;;;14.55;100.00;101246.69;5078179;28;20040;-73
2023/08/29 08:29:42;;;;;;;4.00;3.70;;;;;;;14.57;100.00;101247.47;5083271;28;20123;-73
2023/08/29 08:32:08;;;;;;;3.92;3.42;;;;;;;14.59;100.00;101250.03;5082647;28;20040;-73
2023/08/29 08:34:33;;;;;;;5.72;3.40;;;;;;;14.61;100.00;101253.44;5085024;28;20095;-73
2023/08/29 08:36:59;;;;;;;3.38;3.05;;;;;;;14.62;100.00;101244.59;5082078;28;20036;-74
2023/08/29 08:39:24;;;;;;;3.08;2.88;;;;;;;14.63;100.00;101246.31;5077142;28;20063;-73
2023/08/29 08:41:51;;;;;;;3.42;3.13;;;;;;;14.64;100.00;101245.38;5090703;28;20032;-73
2023/08/29 08:44:20;;;;;;;2.67;2.53;;;;;;;14.65;100.00;101244.44;5084471;28;20035;-74
2023/08/29 08:46:46;;;;;;;;;;;;;;;14.66;100.00;101235.63;5084795;28;20042;-73
2023/08/29 08:49:12;;;;;;;6.28;2.50;;;;;;;14.68;100.00;101239.03;5092936;28;19955;-73
2023/08/29 08:51:38;;;;;;;3.17;2.97;;;;;;;14.68;100.00;101239.03;5092886;28;20085;-73
2023/08/29 08:54:07;;;;;;;3.03;2.72;;;;;;;14.71;100.00;101238.00;5088233;28;20333;-73
2023/08/29 08:56:32;;;;;;;2.85;2.65;;;;;;;14.71;100.00;101238.84;5090292;28;20051;-73
2023/08/29 08:58:58;;;;;;;2.97;2.70;;;;;;;14.73;100.00;101241.41;5089660;28;20027;-73
2023/08/29 09:01:24;;;;;;;3.40;3.20;;;;;;;14.75;100.00;101235.16;5089106;28;20032;-73
2023/08/29 09:03:49;;;;;;;3.83;3.42;;;;;;;14.77;100.00;101228.00;5090729;28;20039;-73
2023/08/29 09:06:15;;;;;;;3.50;3.20;;;;;;;14.79;100.00;101235.84;5090691;28;20096;-73
2023/08/29 09:08:40;;;;;;;3.50;3.20;;;;;;;14.81;100.00;101230.47;5090072;28;20028;-73
2023/08/29 09:11:06;;;;;;;3.97;3.65;;;;;;;14.84;100.00;101230.31;5084346;28;20050;-73
2023/08/29 09:13:31;;;;;;;4.38;3.65;;;;;;;14.86;100.00;101231.06;5088913;28;20236;-73
2023/08/29 09:15:58;;;;;;;4.90;4.50;;;;;;;14.88;100.00;101223.94;5094879;28;20036;-73
2023/08/29 09:18:25;;;;;;;4.95;4.53;;;;;;;14.91;100.00;101224.63;5095222;28;20100;-73
2023/08/29 09:20:54;;;;;;;4.80;4.38;;;;;;;14.93;100.00;101217.47;5089724;28;20039;-74
2023/08/29 09:23:21;;;;;;;4.28;3.97;;;;;;;14.97;100.00;101212.91;5086978;28;20273;-73
2023/08/29 09:25:58;;;;;;;4.25;3.95;;;;;;;15.01;100.00;101213.59;5093466;28;20366;-73
2023/08/29 09:28:27;;;;;;;4.40;4.10;;;;;;;15.06;100.00;101209.78;5096008;28;20066;-73
2023/08/29 09:30:53;;;;;;;4.70;4.32;;;;;;;15.12;100.00;101211.25;5096181;28;20032;-73
2023/08/29 09:33:22;;;;;;;4.07;3.78;;;;;;;15.18;100.00;101210.91;5090179;28;20089;-73
2023/08/29 09:35:49;;;;;;;3.00;2.80;;;;;;;15.24;100.00;101209.72;5095395;28;20054;-73
2023/08/29 09:38:17;;;;;;;2.67;2.30;;;;;;;15.28;100.00;101198.94;5094042;28;20038;-73
2023/08/29 09:40:49;;;;;;;2.95;1.80;;;;;;;15.32;100.00;101207.53;5085132;28;20039;-73
2023/08/29 09:43:16;;;;;;;2.40;2.20;;;;;;;15.38;100.00;101201.06;5087132;28;20028;-73
2023/08/29 09:45:43;;;;;;;1.90;1.80;;;;;;;15.41;100.00;101204.38;5090745;28;20323;-73
2023/08/29 09:48:08;;;;;;;2.85;1.90;;;;;;;15.45;100.00;101197.16;5096706;28;20088;-73
2023/08/29 09:50:35;;;;;;;1.90;1.80;;;;;;;15.47;100.00;101196.13;5097433;28;20291;-74
2023/08/29 09:53:01;;;;;;;1.70;1.60;;;;;;;15.50;100.00;101192.47;5096721;28;20095;-73
2023/08/29 09:55:33;;;;;;;2.85;1.73;;;;;;;15.52;100.00;101191.44;5096262;28;20040;-73
2023/08/29 09:57:59;;;;;;;1.98;1.88;;;;;;;15.55;100.00;101193.91;5093085;28;20036;-73
2023/08/29 10:00:25;;;;;;;1.75;1.65;;;;;;;15.58;100.00;101192.88;5087752;28;20028;-73
2023/08/29 10:02:56;;;;;;;1.60;1.50;;;;;;;15.61;100.00;101182.16;5094728;28;20077;-73
2023/08/29 10:05:25;;;;;;;1.88;1.70;;;;;;;15.65;99.89;101193.41;5089981;28;20354;-73
2023/08/29 10:07:55;;;;;;;2.05;1.80;;;;;;;15.67;99.83;101183.59;5094390;28;20035;-73
2023/08/29 10:10:21;;;;;;;1.80;1.70;;;;;;;15.69;99.82;101187.00;5090550;28;20330;-73
2023/08/29 10:12:48;;;;;;;1.80;1.70;;;;;;;15.71;99.60;101191.25;5094443;28;20223;-73
2023/08/29 10:15:16;;;;;;;3.15;1.70;;;;;;;15.75;99.44;101186.66;5093977;28;20255;-73
2023/08/29 10:17:42;;;;;;;2.20;1.38;;;;;;;15.79;99.28;101188.22;5091074;28;20048;-73
2023/08/29 10:20:12;;;;;;;1.67;1.58;;;;;;;15.84;99.36;101186.13;5086116;28;20061;-73
2023/08/29 10:22:40;;;;;;;1.60;1.50;;;;;;;15.86;99.27;101183.41;5072955;28;20239;-73
2023/08/29 10:25:06;;;;;;;2.05;1.85;;;;;;;15.88;98.89;101179.75;5092335;28;20032;-73
2023/08/29 10:27:33;;;;;;;2.72;1.85;;;;;;;15.90;98.92;101182.31;5089854;28;20046;-73
2023/08/29 10:30:01;;;;;;;1.80;1.70;;;;;;;15.91;98.68;101178.72;5090980;28;20028;-73
2023/08/29 10:32:27;;;;;;;3.13;1.60;;;;;;;15.92;98.27;101181.28;5086975;28;20065;-73
2023/08/29 10:34:53;;;;;;;1.50;1.40;;;;;;;15.92;97.95;101181.28;5084821;28;20386;-73
2023/08/29 10:37:20;;;;;;;2.78;1.58;;;;;;;15.92;97.94;101176.00;5092819;28;20059;-73
2023/08/29 10:39:45;;;;;;;1.30;1.20;;;;;;;15.95;97.77;101179.41;5089447;28;20044;-73
2023/08/29 10:42:13;;;;;;;2.80;1.48;;;;;;;15.96;97.75;101178.47;5084449;28;20040;-73
2023/08/29 10:44:42;;;;;;;1.40;1.30;;;;;;;15.98;97.68;101179.22;5085964;28;20032;-73
2023/08/29 10:47:16;;;;;;;4.03;1.40;;;;;;;15.99;97.88;101178.28;5090462;28;20081;-73
2023/08/29 10:49:44;;;;;;;1.52;1.40;;;;;;;16.01;97.93;101184.31;5089710;28;20063;-73
2023/08/29 10:52:11;;;;;;;2.97;1.40;;;;;;;16.03;97.70;101183.31;5082185;28;20095;-73
2023/08/29 10:54:36;;;;;;;1.20;1.20;;;;;;;16.05;97.41;101175.28;5085445;28;20097;-73
2023/08/29 10:57:28;;;;;;;1.42;1.30;;;;;;;16.06;97.26;101183.13;5094051;28;20039;-73
2023/08/29 10:59:54;;;;;;;1.58;1.48;;;;;;;16.07;97.33;101181.34;5091331;28;20103;-74
2023/08/29 11:02:29;;;;;;;1.38;1.27;;;;;;;16.10;97.33;101182.00;5092426;28;20043;-73
2023/08/29 11:05:03;;;;;;;2.58;1.40;;;;;;;16.11;96.86;101174.94;5092497;28;20042;-74
2023/08/29 11:07:30;;;;;;;2.00;1.30;;;;;;;16.12;96.99;101168.72;5085109;28;20048;-74
2023/08/29 11:10:12;;;;;;;1.58;1.30;;;;;;;16.14;96.79;101168.63;5080377;28;20031;-73
2023/08/29 11:13:06;;;;;;;2.08;1.30;;;;;;;16.15;96.79;101167.66;5077419;28;20351;-73
2023/08/29 11:15:49;;;;;;;1.48;1.38;;;;;;;16.17;96.70;101166.66;5083637;28;20354;-73
2023/08/29 11:18:24;;;;;;;4.05;1.70;;;;;;;16.18;96.69;101167.50;5081083;28;20055;-73
2023/08/29 11:20:51;;;;;;;1.13;1.13;;;;;;;16.19;96.55;101159.50;5086589;28;20356;-73